Time;durP1;ratioP1;P1;durP2;ratioP2;P2;SDS_P1;SDS_P2;PMS_P1;PMS_P2;Temp;Humidity;BMP_temperature;BMP_pressure;BME280_temperature;BME280_humidity;BME280_pressure;Samples;Min_cycle;Max_cycle;Signal;HPM_P1;HPM_P2
2021/12/02 00:01:16;;;;;;;5.97;1.30;;;3.80;99.90;;;;;;5114678;27;20558;-70
2021/12/02 00:03:43;;;;;;;9.30;1.42;;;3.80;99.90;;;;;;5114540;27;20110;-71
2021/12/02 00:06:12;;;;;;;7.60;1.15;;;3.80;99.90;;;;;;5115564;27;20075;-71
2021/12/02 00:08:38;;;;;;;8.30;1.80;;;3.90;99.90;;;;;;5115102;27;20504;-70
2021/12/02 00:11:04;;;;;;;6.78;1.20;;;3.90;99.90;;;;;;5113497;27;20043;-70
2021/12/02 00:13:37;;;;;;;7.70;0.88;;;4.00;99.90;;;;;;5111384;27;20126;-69
2021/12/02 00:21:17;;;;;;;8.40;1.80;;;3.90;99.90;;;;;;5114722;27;20562;-69
2021/12/02 00:24:07;;;;;;;5.45;0.82;;;3.90;99.90;;;;;;5114765;27;20023;-70
2021/12/02 00:26:36;;;;;;;6.40;1.10;;;4.00;99.90;;;;;;5110872;27;20054;-69
2021/12/02 00:29:05;;;;;;;8.70;0.95;;;4.00;99.90;;;;;;5113979;27;20030;-70
2021/12/02 00:31:35;;;;;;;6.30;1.00;;;4.00;99.90;;;;;;5113912;27;20077;-70
2021/12/02 00:34:03;;;;;;;11.18;1.25;;;4.10;99.90;;;;;;5112853;27;20054;-69
2021/12/02 00:36:32;;;;;;;3.17;0.60;;;4.10;99.90;;;;;;5114288;27;20116;-71
2021/12/02 00:38:59;;;;;;;7.90;1.45;;;4.10;99.90;;;;;;5113864;27;20032;-71
2021/12/02 00:41:26;;;;;;;7.30;0.80;;;4.00;99.90;;;;;;5113278;27;20031;-71
2021/12/02 00:43:55;;;;;;;11.07;1.00;;;4.00;99.90;;;;;;5114579;27;20043;-70
2021/12/02 00:46:23;;;;;;;15.20;1.20;;;4.00;99.90;;;;;;5114609;27;20039;-70
2021/12/02 00:48:49;;;;;;;9.52;1.63;;;3.90;99.90;;;;;;5114264;27;20070;-70
2021/12/02 00:51:16;;;;;;;7.32;1.17;;;3.80;99.90;;;;;;5097355;27;20035;-70
2021/12/02 00:53:46;;;;;;;8.93;1.00;;;3.70;99.90;;;;;;5113765;27;20043;-70
2021/12/02 00:56:14;;;;;;;6.82;1.10;;;3.60;99.90;;;;;;5113879;27;20043;-71
2021/12/02 00:58:40;;;;;;;13.80;1.55;;;3.60;99.90;;;;;;5112177;27;20046;-70
2021/12/02 01:01:07;;;;;;;16.95;1.45;;;3.50;99.90;;;;;;5112789;27;20581;-70
2021/12/02 01:03:37;;;;;;;9.27;1.30;;;3.50;99.90;;;;;;5111903;27;20035;-70
2021/12/02 01:06:05;;;;;;;8.82;1.45;;;3.40;99.90;;;;;;5111453;27;20047;-70
2021/12/02 01:08:32;;;;;;;14.38;1.50;;;3.40;99.90;;;;;;5113323;27;20107;-70
2021/12/02 01:10:58;;;;;;;10.45;1.17;;;3.30;99.90;;;;;;5113922;27;20126;-70
2021/12/02 01:13:23;;;;;;;13.43;1.25;;;3.30;99.90;;;;;;5097097;27;20450;-70
2021/12/02 01:15:49;;;;;;;16.13;1.75;;;3.20;99.90;;;;;;5113649;27;20039;-70
2021/12/02 01:18:16;;;;;;;13.23;1.30;;;3.10;99.90;;;;;;5113515;27;20031;-70
2021/12/02 01:20:46;;;;;;;11.10;1.30;;;3.10;99.90;;;;;;5113213;27;20481;-70
2021/12/02 01:23:12;;;;;;;7.65;1.05;;;3.10;99.90;;;;;;5114202;27;20092;-71
2021/12/02 01:25:40;;;;;;;14.98;1.50;;;3.00;99.90;;;;;;5096903;27;20143;-70
2021/12/02 01:28:06;;;;;;;19.33;2.33;;;3.00;99.90;;;;;;5113376;27;20126;-70
2021/12/02 01:30:32;;;;;;;11.50;1.40;;;3.00;99.90;;;;;;5113583;27;20505;-70
2021/12/02 01:33:06;;;;;;;5.05;1.10;;;3.00;99.90;;;;;;5096254;28;20107;-71
2021/12/02 01:35:34;;;;;;;13.30;1.30;;;3.00;99.90;;;;;;5113557;28;20039;-71
2021/12/02 01:38:00;;;;;;;13.90;1.10;;;3.00;99.90;;;;;;5113438;28;20047;-71
2021/12/02 01:40:27;;;;;;;7.00;1.20;;;3.00;99.90;;;;;;5113280;28;20050;-71
2021/12/02 01:42:55;;;;;;;9.75;1.13;;;3.10;99.90;;;;;;5113567;28;20428;-71
2021/12/02 01:45:25;;;;;;;10.95;1.80;;;3.00;99.90;;;;;;5114171;28;20058;-71
2021/12/02 01:47:52;;;;;;;14.48;1.50;;;3.00;99.90;;;;;;5096114;28;20042;-71
2021/12/02 01:50:21;;;;;;;8.05;1.15;;;3.10;99.90;;;;;;5113044;28;20066;-71
2021/12/02 01:52:58;;;;;;;6.55;1.17;;;3.10;99.90;;;;;;5115666;27;20074;-71
2021/12/02 01:55:25;;;;;;;10.65;0.90;;;3.20;99.90;;;;;;5117966;27;20122;-70
2021/12/02 01:58:00;;;;;;;8.68;0.82;;;3.30;99.90;;;;;;5117297;27;20065;-69
2021/12/02 02:00:32;;;;;;;1.25;0.43;;;3.40;99.90;;;;;;5117152;27;20561;-69
2021/12/02 02:03:02;;;;;;;2.85;0.77;;;3.50;99.90;;;;;;5117739;27;20524;-69
2021/12/02 02:05:28;;;;;;;5.97;0.93;;;3.40;99.90;;;;;;5116775;27;20377;-69
2021/12/02 02:08:05;;;;;;;9.23;0.85;;;3.30;99.90;;;;;;5117564;27;20328;-67
2021/12/02 02:10:38;;;;;;;2.90;0.43;;;3.30;99.90;;;;;;5117224;27;20046;-68
2021/12/02 02:13:06;;;;;;;6.60;0.75;;;3.10;99.90;;;;;;5100971;27;20049;-69
2021/12/02 02:15:32;;;;;;;2.72;0.50;;;2.80;99.90;;;;;;5117411;27;20028;-67
2021/12/02 02:18:05;;;;;;;1.65;0.40;;;2.70;99.90;;;;;;5117512;27;20039;-70
2021/12/02 02:20:40;;;;;;;4.95;0.82;;;2.50;99.90;;;;;;5116797;27;20043;-70
2021/12/02 02:23:09;;;;;;;1.70;0.30;;;2.30;99.90;;;;;;5118438;27;20054;-69
2021/12/02 02:25:35;;;;;;;2.25;0.40;;;2.10;99.90;;;;;;5117373;27;20027;-68
2021/12/02 02:28:01;;;;;;;5.00;0.40;;;2.00;99.90;;;;;;5117631;27;20062;-69
2021/12/02 02:30:26;;;;;;;1.38;0.28;;;2.00;99.90;;;;;;5116350;27;20042;-69
2021/12/02 02:32:52;;;;;;;1.65;0.40;;;1.90;99.90;;;;;;5116697;27;20091;-69
2021/12/02 02:35:17;;;;;;;3.03;0.52;;;1.90;99.90;;;;;;5099922;27;20043;-72
2021/12/02 02:37:43;;;;;;;3.28;0.32;;;1.90;99.90;;;;;;5116547;27;20546;-72
2021/12/02 02:40:10;;;;;;;3.92;0.50;;;1.80;99.90;;;;;;5116363;27;20500;-71
2021/12/02 02:42:37;;;;;;;4.47;0.52;;;1.80;99.90;;;;;;5117088;27;20075;-72
2021/12/02 02:45:04;;;;;;;3.55;0.40;;;1.80;99.90;;;;;;5099665;27;20039;-72
2021/12/02 02:47:29;;;;;;;5.65;0.68;;;1.80;99.90;;;;;;5116474;27;20035;-71
2021/12/02 02:49:55;;;;;;;4.65;0.60;;;1.70;99.90;;;;;;5116314;27;20038;-71
2021/12/02 02:52:21;;;;;;;3.67;0.60;;;1.70;99.90;;;;;;5116461;27;20079;-71
2021/12/02 02:54:47;;;;;;;2.85;0.43;;;1.60;99.90;;;;;;5115334;27;20336;-71
2021/12/02 02:57:15;;;;;;;3.45;0.88;;;1.60;99.90;;;;;;5116183;27;20043;-71
2021/12/02 03:00:07;;;;;;;1.27;0.40;;;1.60;99.90;;;;;;5115618;27;20043;-71
2021/12/02 03:02:47;;;;;;;3.45;0.47;;;1.60;99.90;;;;;;5109532;27;20130;-71
2021/12/02 03:05:22;;;;;;;4.75;0.40;;;1.50;99.90;;;;;;5115783;27;20035;-71
2021/12/02 03:07:54;;;;;;;1.98;0.68;;;1.50;99.90;;;;;;5116710;27;20047;-71
2021/12/02 03:10:40;;;;;;;1.40;0.45;;;1.40;99.90;;;;;;5115638;27;20035;-70
2021/12/02 03:13:20;;;;;;;5.07;0.60;;;1.40;99.90;;;;;;5116147;27;20538;-70
2021/12/02 03:18:33;;;;;;;4.57;0.70;;;1.30;99.90;;;;;;5115854;27;20119;-70
2021/12/02 03:20:58;;;;;;;2.17;0.50;;;1.20;99.90;;;;;;5115211;27;20035;-70
2021/12/02 03:23:24;;;;;;;2.58;0.50;;;1.20;99.90;;;;;;5115887;27;20528;-70
2021/12/02 03:25:49;;;;;;;5.78;0.75;;;1.20;99.90;;;;;;5116044;27;20538;-70
2021/12/02 03:28:15;;;;;;;5.15;0.75;;;1.20;99.90;;;;;;5115661;27;20080;-70
2021/12/02 03:30:41;;;;;;;5.05;0.70;;;1.10;99.90;;;;;;5115383;27;20031;-70
2021/12/02 03:33:06;;;;;;;4.90;0.82;;;1.10;99.90;;;;;;5116416;27;20096;-70
2021/12/02 03:35:32;;;;;;;4.28;0.68;;;1.10;99.90;;;;;;5116018;27;20440;-70
2021/12/02 03:37:57;;;;;;;5.03;0.70;;;1.10;99.90;;;;;;5115129;27;20035;-70
2021/12/02 03:40:23;;;;;;;4.43;0.50;;;1.10;99.90;;;;;;5133791;27;20498;-70
2021/12/02 03:42:53;;;;;;;4.68;0.50;;;1.10;99.90;;;;;;5115525;27;20074;-70
2021/12/02 03:45:21;;;;;;;3.35;0.57;;;1.10;99.90;;;;;;5115752;27;20039;-70
2021/12/02 03:47:47;;;;;;;5.78;0.50;;;1.10;99.90;;;;;;5114955;27;20477;-70
2021/12/02 03:50:13;;;;;;;3.58;0.60;;;1.00;99.90;;;;;;5112350;27;20039;-70
2021/12/02 03:52:38;;;;;;;4.07;0.60;;;1.10;99.90;;;;;;5115392;27;20054;-71
2021/12/02 03:55:04;;;;;;;6.15;0.68;;;1.10;99.90;;;;;;5115612;27;20045;-70
2021/12/02 03:57:32;;;;;;;4.60;0.63;;;1.20;99.90;;;;;;5097276;27;20038;-70
2021/12/02 03:59:58;;;;;;;4.68;0.80;;;1.20;99.90;;;;;;5114836;27;20085;-70
2021/12/02 04:02:24;;;;;;;5.22;0.70;;;1.30;99.90;;;;;;5115436;27;20039;-70
2021/12/02 04:04:50;;;;;;;6.22;0.95;;;1.40;99.90;;;;;;5116140;27;20049;-68
2021/12/02 04:07:18;;;;;;;2.70;1.02;;;1.50;99.90;;;;;;5115302;27;20043;-70
2021/12/02 04:09:45;;;;;;;5.30;0.55;;;1.60;99.90;;;;;;5115616;27;20042;-69
2021/12/02 04:12:22;;;;;;;2.42;0.35;;;1.80;99.90;;;;;;5116651;27;20055;-70
2021/12/02 04:14:58;;;;;;;0.45;0.43;;;1.90;99.90;;;;;;5115744;27;20047;-69
2021/12/02 04:17:41;;;;;;;3.97;0.50;;;2.00;99.90;;;;;;5114585;27;20042;-71
2021/12/02 04:20:13;;;;;;;0.20;0.20;;;2.10;99.90;;;;;;5097910;27;20084;-70
2021/12/02 04:22:39;;;;;;;1.52;0.50;;;2.00;99.90;;;;;;5098717;27;20401;-68
2021/12/02 04:25:06;;;;;;;2.75;0.57;;;2.10;99.90;;;;;;5098437;27;20031;-69
2021/12/02 04:27:32;;;;;;;1.10;0.30;;;2.00;99.90;;;;;;5113916;27;20038;-71
2021/12/02 04:29:57;;;;;;;5.10;0.50;;;2.00;99.90;;;;;;5114930;27;20047;-70
2021/12/02 04:32:23;;;;;;;4.85;0.50;;;2.00;99.90;;;;;;5114589;27;20043;-71
2021/12/02 04:34:48;;;;;;;4.75;0.80;;;1.90;99.90;;;;;;5114973;27;20122;-70
2021/12/02 04:37:14;;;;;;;2.65;0.60;;;1.90;99.90;;;;;;5114551;27;20118;-70
2021/12/02 04:39:39;;;;;;;6.70;1.55;;;1.90;99.90;;;;;;5114394;27;20043;-71
2021/12/02 04:42:05;;;;;;;4.32;0.77;;;1.90;99.90;;;;;;5114821;27;20038;-71
2021/12/02 04:44:31;;;;;;;4.90;0.52;;;1.90;99.90;;;;;;5113061;27;20044;-70
2021/12/02 04:46:56;;;;;;;4.00;0.57;;;1.90;99.90;;;;;;5113876;27;20043;-71
2021/12/02 04:49:21;;;;;;;6.28;0.60;;;1.90;99.90;;;;;;5097790;27;20066;-70
2021/12/02 04:51:47;;;;;;;6.65;0.80;;;1.90;99.90;;;;;;5114351;27;20084;-70
2021/12/02 04:54:14;;;;;;;9.07;1.15;;;2.00;99.90;;;;;;5114987;27;20043;-70
2021/12/02 04:56:39;;;;;;;9.15;1.05;;;2.00;99.90;;;;;;5113608;27;20121;-71
2021/12/02 04:59:06;;;;;;;3.33;0.90;;;2.10;99.90;;;;;;5113955;27;20176;-72
2021/12/02 05:01:31;;;;;;;4.50;1.00;;;2.10;99.90;;;;;;5114373;27;20040;-70
2021/12/02 05:03:58;;;;;;;3.88;0.70;;;2.10;99.90;;;;;;5112350;27;20158;-71
2021/12/02 05:06:23;;;;;;;4.28;0.70;;;2.10;99.90;;;;;;5113584;27;20043;-72
2021/12/02 05:08:49;;;;;;;9.20;1.13;;;2.10;99.90;;;;;;5113380;27;20038;-72
2021/12/02 05:11:14;;;;;;;0.85;0.50;;;2.10;99.90;;;;;;5113673;27;20401;-71
2021/12/02 05:13:40;;;;;;;1.08;0.30;;;2.10;99.90;;;;;;5113572;27;20079;-72
2021/12/02 05:16:05;;;;;;;5.07;0.52;;;2.10;99.90;;;;;;5113169;27;20126;-72
2021/12/02 05:18:31;;;;;;;2.75;0.40;;;2.10;99.90;;;;;;5096745;27;20043;-72
2021/12/02 05:20:57;;;;;;;7.78;0.90;;;2.10;99.90;;;;;;5112752;28;20084;-71
2021/12/02 05:23:23;;;;;;;3.40;0.50;;;2.10;99.90;;;;;;5113769;28;20024;-71
2021/12/02 05:25:49;;;;;;;5.72;0.70;;;2.00;99.90;;;;;;5113183;27;20284;-71
2021/12/02 05:28:18;;;;;;;2.22;0.50;;;2.00;99.90;;;;;;5112087;27;20084;-71
2021/12/02 05:30:45;;;;;;;4.07;0.60;;;1.90;99.90;;;;;;5112242;28;20042;-70
2021/12/02 05:33:11;;;;;;;0.85;0.30;;;1.90;99.90;;;;;;5113265;28;20047;-71
2021/12/02 05:35:37;;;;;;;4.32;0.60;;;1.90;99.90;;;;;;5096871;28;20039;-71
2021/12/02 05:38:03;;;;;;;3.03;0.60;;;1.90;99.90;;;;;;5095663;28;20039;-71
2021/12/02 05:40:29;;;;;;;5.28;0.40;;;1.80;99.90;;;;;;5111927;28;20473;-71
2021/12/02 05:42:54;;;;;;;2.05;0.55;;;1.80;99.90;;;;;;5112413;28;20031;-71
2021/12/02 05:45:20;;;;;;;3.22;0.43;;;1.70;99.90;;;;;;5112813;28;20374;-71
2021/12/02 05:47:45;;;;;;;1.80;0.40;;;1.70;99.90;;;;;;5095345;28;20166;-71
2021/12/02 05:50:11;;;;;;;2.13;0.43;;;1.70;99.90;;;;;;5112735;28;20043;-71
2021/12/02 05:52:37;;;;;;;2.15;0.55;;;1.80;99.90;;;;;;5112829;28;20068;-72
2021/12/02 05:55:03;;;;;;;2.22;0.45;;;1.80;99.90;;;;;;5112560;28;20121;-71
2021/12/02 05:57:28;;;;;;;1.60;0.30;;;1.90;99.90;;;;;;5095267;28;20046;-72
2021/12/02 05:59:54;;;;;;;2.65;0.52;;;1.90;99.90;;;;;;5112118;28;20421;-72
2021/12/02 06:02:20;;;;;;;1.85;0.50;;;2.00;99.90;;;;;;5112797;28;20446;-72
2021/12/02 06:04:50;;;;;;;3.40;0.40;;;2.00;99.90;;;;;;5112417;28;20100;-71
2021/12/02 06:07:15;;;;;;;3.05;0.40;;;2.10;99.90;;;;;;5110847;28;20042;-70
2021/12/02 06:09:41;;;;;;;1.63;0.30;;;2.00;99.90;;;;;;5111903;28;20378;-71
2021/12/02 06:12:06;;;;;;;1.35;0.28;;;2.00;99.90;;;;;;5111649;28;20031;-71
2021/12/02 06:14:32;;;;;;;1.80;0.30;;;1.90;99.90;;;;;;5110785;28;20097;-71
2021/12/02 06:16:57;;;;;;;2.17;1.20;;;1.90;99.90;;;;;;5110788;28;20118;-71
2021/12/02 06:19:23;;;;;;;1.27;0.20;;;1.80;99.90;;;;;;5111913;28;20043;-70
2021/12/02 06:21:50;;;;;;;2.10;0.68;;;1.80;99.90;;;;;;5112668;28;20074;-71
2021/12/02 06:24:16;;;;;;;2.75;0.88;;;1.70;99.90;;;;;;5110860;28;20043;-71
2021/12/02 06:26:41;;;;;;;4.35;0.50;;;1.70;99.90;;;;;;5110593;28;20123;-70
2021/12/02 06:29:07;;;;;;;1.75;0.60;;;1.60;99.90;;;;;;5110201;28;20109;-71
2021/12/02 06:31:32;;;;;;;1.40;0.82;;;1.70;99.90;;;;;;5111244;28;20160;-70
2021/12/02 06:33:58;;;;;;;2.15;0.65;;;1.70;99.90;;;;;;5112627;28;20134;-71
2021/12/02 06:36:24;;;;;;;2.67;0.57;;;1.80;99.90;;;;;;5110094;28;20055;-71
2021/12/02 06:38:49;;;;;;;1.80;0.50;;;1.90;99.90;;;;;;5114417;27;20035;-68
2021/12/02 06:41:16;;;;;;;0.73;0.50;;;2.00;99.90;;;;;;5114184;27;20062;-69
2021/12/02 06:43:41;;;;;;;1.98;0.32;;;1.90;99.90;;;;;;5113531;27;20122;-70
2021/12/02 06:46:07;;;;;;;2.13;0.60;;;1.90;99.90;;;;;;5114274;27;20126;-69
2021/12/02 06:48:32;;;;;;;1.33;0.35;;;1.80;99.90;;;;;;5115030;27;20035;-65
2021/12/02 06:50:58;;;;;;;0.63;0.52;;;1.80;99.90;;;;;;5115874;27;20099;-69
2021/12/02 06:53:23;;;;;;;1.75;0.60;;;1.70;99.90;;;;;;5115224;27;20469;-68
2021/12/02 06:55:49;;;;;;;0.95;0.63;;;1.70;99.90;;;;;;5116141;27;20083;-68
2021/12/02 06:58:14;;;;;;;3.10;0.70;;;1.60;99.90;;;;;;5113310;27;20489;-69
2021/12/02 07:00:40;;;;;;;1.38;0.75;;;1.60;99.90;;;;;;5115920;27;20040;-68
2021/12/02 07:03:06;;;;;;;1.88;0.77;;;1.60;99.90;;;;;;5114886;27;20035;-70
2021/12/02 07:05:33;;;;;;;1.55;0.60;;;1.50;99.90;;;;;;5116214;27;20316;-69
2021/12/02 07:07:59;;;;;;;3.45;0.80;;;1.50;99.90;;;;;;5114700;27;20035;-69
2021/12/02 07:10:25;;;;;;;2.05;0.98;;;1.50;99.90;;;;;;5115300;27;20060;-69
2021/12/02 07:12:56;;;;;;;3.17;1.00;;;1.50;99.90;;;;;;5114888;27;20051;-69
2021/12/02 07:15:31;;;;;;;2.38;0.90;;;1.50;99.90;;;;;;5115798;27;20527;-69
2021/12/02 07:17:58;;;;;;;1.10;0.73;;;1.50;99.90;;;;;;5116176;27;20123;-69
2021/12/02 07:20:29;;;;;;;3.88;1.05;;;1.40;99.90;;;;;;5113215;27;20039;-69
2021/12/02 07:22:56;;;;;;;4.53;1.17;;;1.30;99.90;;;;;;5116287;27;20043;-69
2021/12/02 07:25:22;;;;;;;1.55;1.13;;;1.30;99.90;;;;;;5114062;27;20095;-69
2021/12/02 07:27:48;;;;;;;2.97;0.90;;;1.30;99.90;;;;;;5113283;27;20439;-69
2021/12/02 07:30:14;;;;;;;5.00;0.90;;;1.30;99.90;;;;;;5114020;27;20045;-69
2021/12/02 07:32:40;;;;;;;5.80;1.10;;;1.30;99.90;;;;;;5114048;27;20035;-70
2021/12/02 07:35:11;;;;;;;1.75;0.85;;;1.30;99.90;;;;;;5112217;27;20053;-69
2021/12/02 07:37:41;;;;;;;2.90;0.85;;;1.40;99.90;;;;;;5112317;27;20080;-70
2021/12/02 07:40:07;;;;;;;2.58;0.73;;;1.40;99.90;;;;;;5115325;27;20063;-70
2021/12/02 07:42:32;;;;;;;2.60;0.68;;;1.40;99.90;;;;;;5111470;27;20075;-70
2021/12/02 07:44:58;;;;;;;2.50;0.80;;;1.40;99.90;;;;;;5113903;27;20041;-70
2021/12/02 07:47:25;;;;;;;2.30;1.00;;;1.50;99.90;;;;;;5096361;27;20142;-70
2021/12/02 07:49:51;;;;;;;4.28;1.20;;;1.50;99.90;;;;;;5113642;27;20063;-69
2021/12/02 07:52:21;;;;;;;0.93;0.43;;;1.60;99.90;;;;;;5113008;27;20074;-69
2021/12/02 07:54:51;;;;;;;2.72;1.00;;;1.70;99.90;;;;;;5114676;27;20069;-70
2021/12/02 07:57:16;;;;;;;4.20;1.30;;;1.70;99.90;;;;;;5113347;27;20137;-70
2021/12/02 07:59:42;;;;;;;1.95;0.75;;;1.80;99.90;;;;;;5109123;27;20126;-70
2021/12/02 08:02:14;;;;;;;1.30;0.80;;;1.80;99.90;;;;;;5112637;27;20879;-70
2021/12/02 08:04:39;;;;;;;1.73;0.88;;;1.80;99.90;;;;;;5095506;27;20031;-70
2021/12/02 08:07:05;;;;;;;5.35;1.10;;;1.90;99.90;;;;;;5105496;27;20108;-71
2021/12/02 08:09:30;;;;;;;5.47;1.17;;;1.90;99.90;;;;;;5110223;27;20035;-70
2021/12/02 08:11:59;;;;;;;4.13;1.00;;;2.00;99.90;;;;;;5114295;27;20067;-70
2021/12/02 08:14:24;;;;;;;3.22;1.20;;;2.00;99.90;;;;;;5112910;27;20147;-70
2021/12/02 08:16:50;;;;;;;3.38;1.10;;;2.00;99.90;;;;;;5110117;27;20042;-70
2021/12/02 08:19:16;;;;;;;2.90;1.20;;;2.00;99.90;;;;;;5113573;27;20038;-70
2021/12/02 08:21:41;;;;;;;6.75;1.25;;;2.10;99.90;;;;;;5112694;27;20035;-70
2021/12/02 08:24:07;;;;;;;3.25;1.08;;;2.10;99.90;;;;;;5114907;27;20045;-70
2021/12/02 08:26:33;;;;;;;4.95;1.40;;;2.10;99.90;;;;;;5111979;27;20043;-70
2021/12/02 08:29:00;;;;;;;7.07;1.20;;;2.20;99.90;;;;;;5114462;27;20039;-70
2021/12/02 08:31:25;;;;;;;4.80;1.00;;;2.20;99.90;;;;;;5111706;27;20095;-70
2021/12/02 08:33:53;;;;;;;1.88;0.93;;;2.20;99.90;;;;;;5108537;27;20051;-70
2021/12/02 08:36:22;;;;;;;2.90;1.00;;;2.20;99.90;;;;;;5112550;27;20560;-70
2021/12/02 08:38:48;;;;;;;3.80;1.10;;;2.30;99.90;;;;;;5122625;27;20038;-70
2021/12/02 08:41:18;;;;;;;6.38;1.33;;;2.30;99.90;;;;;;5130568;27;20043;-70
2021/12/02 08:43:44;;;;;;;5.10;0.98;;;2.30;99.90;;;;;;5124746;27;20038;-71
2021/12/02 08:46:10;;;;;;;1.33;0.52;;;2.30;99.90;;;;;;5130051;27;20054;-69
2021/12/02 08:48:35;;;;;;;1.95;0.90;;;2.40;99.90;;;;;;5121790;27;20503;-69
2021/12/02 08:51:01;;;;;;;1.63;0.50;;;2.40;99.90;;;;;;5113779;27;20035;-70
2021/12/02 08:53:27;;;;;;;1.45;0.40;;;2.40;99.90;;;;;;5111129;27;20039;-70
2021/12/02 08:55:52;;;;;;;1.70;0.57;;;2.30;99.90;;;;;;5113193;27;20046;-69
2021/12/02 08:58:18;;;;;;;2.25;0.80;;;2.30;99.90;;;;;;5112184;27;20586;-70
2021/12/02 09:00:44;;;;;;;3.03;0.82;;;2.30;99.90;;;;;;5115107;27;20039;-70
2021/12/02 09:03:13;;;;;;;1.95;0.70;;;2.30;99.90;;;;;;5117348;27;20092;-70
2021/12/02 09:05:39;;;;;;;1.60;0.80;;;2.20;99.90;;;;;;5112541;27;20269;-70
2021/12/02 09:08:05;;;;;;;3.92;0.65;;;2.10;99.90;;;;;;5121241;27;20043;-71
2021/12/02 09:10:32;;;;;;;2.00;0.80;;;2.10;99.90;;;;;;5115941;27;20038;-70
2021/12/02 09:12:58;;;;;;;1.85;0.40;;;2.10;99.90;;;;;;5113604;27;20107;-70
2021/12/02 09:15:24;;;;;;;4.78;0.60;;;2.10;99.90;;;;;;5114684;27;20051;-70
2021/12/02 09:17:50;;;;;;;2.78;0.50;;;2.10;99.90;;;;;;5111963;27;20039;-70
2021/12/02 09:20:17;;;;;;;2.13;0.70;;;2.10;99.90;;;;;;5112678;28;20039;-70
2021/12/02 09:22:43;;;;;;;0.65;0.40;;;2.20;99.90;;;;;;5111437;28;20027;-70
2021/12/02 09:25:10;;;;;;;2.85;0.82;;;2.20;99.90;;;;;;5115027;27;20492;-70
2021/12/02 09:27:36;;;;;;;2.58;0.80;;;2.20;99.90;;;;;;5110620;27;20106;-70
2021/12/02 09:30:03;;;;;;;2.85;0.70;;;2.20;99.90;;;;;;5112717;27;20138;-71
2021/12/02 09:32:29;;;;;;;2.50;0.63;;;2.30;99.90;;;;;;5110641;27;20042;-70
2021/12/02 09:34:55;;;;;;;3.10;0.82;;;2.40;99.90;;;;;;5114057;27;20099;-69
2021/12/02 09:37:21;;;;;;;4.35;0.70;;;2.50;99.90;;;;;;5110794;27;20054;-70
2021/12/02 09:39:47;;;;;;;5.20;1.33;;;2.60;99.90;;;;;;5112519;28;20035;-70
2021/12/02 09:42:14;;;;;;;2.70;0.80;;;2.60;99.90;;;;;;5115414;28;20125;-70
2021/12/02 09:44:40;;;;;;;5.07;1.50;;;2.70;99.90;;;;;;5111057;28;20470;-70
2021/12/02 09:47:06;;;;;;;4.57;1.00;;;2.80;99.90;;;;;;5124102;28;20046;-70
2021/12/02 09:49:33;;;;;;;4.63;0.85;;;2.80;99.90;;;;;;5110478;28;20106;-70
2021/12/02 09:52:03;;;;;;;1.92;0.80;;;2.80;99.90;;;;;;5112230;28;20043;-69
2021/12/02 09:54:36;;;;;;;2.58;0.82;;;2.80;99.90;;;;;;5103502;28;20201;-70
2021/12/02 09:57:04;;;;;;;4.15;1.13;;;2.80;99.90;;;;;;5112270;28;20050;-70
2021/12/02 09:59:36;;;;;;;3.38;1.20;;;2.80;99.90;;;;;;5110628;28;20042;-70
2021/12/02 10:02:06;;;;;;;2.58;0.82;;;2.90;99.90;;;;;;5111957;28;20035;-70
2021/12/02 10:04:34;;;;;;;2.05;1.02;;;2.90;99.90;;;;;;5112323;28;20451;-70
2021/12/02 10:07:08;;;;;;;3.38;1.23;;;2.90;99.90;;;;;;5110395;28;20039;-70
2021/12/02 10:09:50;;;;;;;2.10;1.08;;;3.00;99.90;;;;;;5112518;28;20130;-70
2021/12/02 10:12:19;;;;;;;1.73;1.07;;;2.90;99.90;;;;;;5112988;28;20067;-70
2021/12/02 10:14:55;;;;;;;3.20;1.30;;;3.00;99.90;;;;;;5116202;27;20043;-70
2021/12/02 10:17:47;;;;;;;4.18;1.48;;;2.90;99.90;;;;;;5114075;27;20092;-70
2021/12/02 10:23:23;;;;;;;6.13;1.30;;;3.00;99.90;;;;;;5133139;27;20425;-70
2021/12/02 10:25:58;;;;;;;6.07;1.42;;;3.10;99.90;;;;;;5116451;27;20093;-69
2021/12/02 10:28:26;;;;;;;6.18;1.60;;;3.20;99.90;;;;;;5114440;27;20161;-70
2021/12/02 10:30:54;;;;;;;5.68;1.88;;;3.20;99.90;;;;;;5115676;27;20042;-70
2021/12/02 10:33:37;;;;;;;5.88;2.00;;;3.40;99.90;;;;;;5114417;27;20091;-70
2021/12/02 10:36:06;;;;;;;6.07;1.80;;;3.50;99.90;;;;;;5116141;27;20199;-70
2021/12/02 10:38:40;;;;;;;8.43;1.60;;;3.70;99.90;;;;;;5115036;27;20042;-71
2021/12/02 10:41:17;;;;;;;4.25;1.35;;;3.90;99.90;;;;;;5114855;27;20039;-70
2021/12/02 10:44:06;;;;;;;3.95;1.20;;;4.00;99.90;;;;;;5114759;27;20039;-70
2021/12/02 10:46:33;;;;;;;3.70;1.30;;;4.00;99.90;;;;;;5098315;27;20499;-70
2021/12/02 10:48:59;;;;;;;4.38;1.17;;;4.00;99.90;;;;;;5114288;27;20043;-70
2021/12/02 10:51:40;;;;;;;5.57;1.02;;;4.00;99.90;;;;;;5115226;27;20035;-70
2021/12/02 10:54:12;;;;;;;5.50;1.83;;;4.10;99.90;;;;;;5098772;27;20516;-70
2021/12/02 10:56:37;;;;;;;3.33;0.93;;;4.10;99.90;;;;;;5113602;27;20043;-70
2021/12/02 10:59:44;;;;;;;1.77;0.70;;;4.20;99.90;;;;;;5114941;27;20035;-70
2021/12/02 11:02:17;;;;;;;4.97;0.88;;;4.40;99.90;;;;;;5018840;28;20043;-70
2021/12/02 11:04:53;;;;;;;5.03;0.77;;;4.40;99.90;;;;;;5009642;28;20581;-69
2021/12/02 11:07:23;;;;;;;1.50;0.60;;;4.60;99.90;;;;;;5071901;27;20058;-70
2021/12/02 11:09:50;;;;;;;0.90;0.40;;;4.70;99.90;;;;;;5115017;27;20155;-70
2021/12/02 11:12:24;;;;;;;2.83;0.60;;;4.80;99.90;;;;;;5112834;27;20039;-71
2021/12/02 11:14:54;;;;;;;2.53;0.80;;;5.10;99.90;;;;;;5113689;27;20096;-69
2021/12/02 11:17:21;;;;;;;3.05;0.82;;;5.30;99.90;;;;;;5113271;27;20054;-69
2021/12/02 11:19:49;;;;;;;7.95;1.10;;;5.50;99.90;;;;;;5096674;27;20058;-70
2021/12/02 11:22:17;;;;;;;7.63;0.90;;;5.50;99.90;;;;;;5113951;27;20174;-68
2021/12/02 11:24:44;;;;;;;3.10;0.63;;;5.40;99.90;;;;;;5114284;27;20035;-67
2021/12/02 11:27:23;;;;;;;1.25;0.60;;;4.50;99.90;;;;;;5115175;27;20027;-68
2021/12/02 11:29:58;;;;;;;2.53;0.68;;;3.70;99.90;;;;;;5112995;27;20077;-71
2021/12/02 11:32:29;;;;;;;3.33;0.50;;;3.20;99.90;;;;;;5114943;27;20039;-70
2021/12/02 11:35:00;;;;;;;1.33;0.90;;;2.80;99.90;;;;;;5112742;27;20042;-70
2021/12/02 11:37:27;;;;;;;4.07;0.70;;;2.50;99.90;;;;;;5114779;27;20146;-71
2021/12/02 11:39:54;;;;;;;1.77;0.63;;;2.40;99.90;;;;;;5112381;27;20121;-70
2021/12/02 11:42:20;;;;;;;0.93;0.40;;;2.40;99.90;;;;;;5097802;27;20095;-71
2021/12/02 11:44:46;;;;;;;1.70;0.50;;;2.40;99.90;;;;;;5112764;27;20035;-71
2021/12/02 11:47:12;;;;;;;1.42;0.52;;;2.40;99.90;;;;;;5087820;27;20028;-70
2021/12/02 11:49:40;;;;;;;2.40;0.90;;;2.40;99.90;;;;;;5093299;27;20111;-69
2021/12/02 11:52:05;;;;;;;0.88;0.50;;;2.40;99.90;;;;;;5113474;27;20113;-70
2021/12/02 11:54:35;;;;;;;4.55;1.17;;;2.40;99.90;;;;;;5110824;27;20522;-70
2021/12/02 11:57:00;;;;;;;5.05;2.30;;;2.30;99.90;;;;;;5110883;27;20051;-70
2021/12/02 11:59:26;;;;;;;10.88;4.22;;;2.30;99.90;;;;;;5111562;27;20108;-71
2021/12/02 12:01:59;;;;;;;6.50;3.13;;;2.30;99.90;;;;;;5111995;27;20489;-72
2021/12/02 12:04:25;;;;;;;;;;;2.40;99.90;;;;;;5109528;27;20039;-70
2021/12/02 12:06:54;;;;;;;10.90;3.17;;;2.40;99.90;;;;;;5110026;27;20378;-70
2021/12/02 12:09:21;;;;;;;4.75;2.00;;;2.50;99.90;;;;;;5094740;27;20087;-71
2021/12/02 12:11:51;;;;;;;1.67;0.80;;;2.60;99.90;;;;;;5111717;27;20496;-71
2021/12/02 12:14:19;;;;;;;4.00;0.70;;;2.80;99.90;;;;;;5111974;27;20039;-70
2021/12/02 12:16:50;;;;;;;1.52;0.50;;;2.90;99.90;;;;;;5110923;27;20478;-71
2021/12/02 12:19:28;;;;;;;2.47;0.60;;;3.00;99.90;;;;;;5111540;27;20078;-71
2021/12/02 12:22:01;;;;;;;1.95;0.50;;;3.10;99.90;;;;;;5122108;27;20039;-70
2021/12/02 12:24:47;;;;;;;2.10;0.57;;;3.00;99.90;;;;;;5112426;27;20095;-70
2021/12/02 12:27:23;;;;;;;0.82;0.40;;;2.90;99.90;;;;;;5112358;27;20050;-72
2021/12/02 12:30:14;;;;;;;0.75;0.43;;;2.80;99.90;;;;;;5110861;27;20508;-69
2021/12/02 12:35:24;;;;;;;0.73;0.30;;;2.80;99.90;;;;;;5113660;27;20039;-69
2021/12/02 12:37:52;;;;;;;0.20;0.20;;;2.80;99.90;;;;;;5093312;27;20031;-69
2021/12/02 12:40:23;;;;;;;1.88;0.70;;;2.70;99.90;;;;;;5112459;27;20038;-71
2021/12/02 12:43:11;;;;;;;3.50;0.40;;;2.60;99.90;;;;;;5112390;27;20039;-69
2021/12/02 12:45:40;;;;;;;1.38;0.40;;;2.50;99.90;;;;;;5113508;27;20481;-70
2021/12/02 12:48:26;;;;;;;1.23;0.40;;;2.50;99.90;;;;;;5110458;27;20042;-69
2021/12/02 12:50:52;;;;;;;0.50;0.20;;;2.50;99.90;;;;;;5113091;27;20050;-69
2021/12/02 12:53:31;;;;;;;2.95;0.32;;;2.50;99.90;;;;;;5113782;27;20051;-68
2021/12/02 12:55:56;;;;;;;3.75;0.40;;;2.40;99.90;;;;;;5093776;27;20035;-70
2021/12/02 12:58:27;;;;;;;1.17;0.40;;;2.50;99.90;;;;;;5113548;27;20515;-70
2021/12/02 13:00:55;;;;;;;0.75;0.30;;;2.40;99.90;;;;;;5096491;27;20047;-70
2021/12/02 13:03:42;;;;;;;0.63;0.40;;;2.40;99.90;;;;;;5113919;27;20080;-70
2021/12/02 13:06:20;;;;;;;1.05;0.30;;;2.50;99.90;;;;;;5112348;27;20043;-72
2021/12/02 13:08:48;;;;;;;2.63;0.57;;;2.60;99.90;;;;;;5112621;27;20038;-68
2021/12/02 13:11:17;;;;;;;1.90;0.50;;;2.60;99.90;;;;;;5112974;27;20031;-71
2021/12/02 13:13:44;;;;;;;1.05;0.38;;;2.50;99.90;;;;;;5112865;27;20114;-71
2021/12/02 13:16:15;;;;;;;3.50;0.85;;;2.50;99.90;;;;;;5113038;27;20078;-70
2021/12/02 13:18:43;;;;;;;1.55;0.35;;;2.50;99.90;;;;;;5113231;27;20043;-69